Wetterstation Vordersexau
Wetterdaten: Januar 2014
Datum Temp. A. Feuchte A. Luftdruck Regen Wind Richtung Taupunkt Windchill Windben
01.01.2014 7,4 C 77 % 1010,6 hPa 1,0 l/m 3,2 km/h SO 3,5 C 6,6 C 1,8 km/h
02.01.2014 7,5 C 83 % 1005,8 hPa 8,3 l/m 6,5 km/h N-NO 4,8 C 5,6 C 3,6 km/h
03.01.2014 7,5 C 83 % 1010,1 hPa 2,6 l/m 4,5 km/h O-SO 4,8 C 6,2 C 2,5 km/h
04.01.2014 6,7 C 83 % 1004,7 hPa 5,2 l/m 1,3 km/h O-NO 3,9 C 6,5 C 0,7 km/h
05.01.2014 5,0 C 81 % 1008,0 hPa 1,6 l/m 10,6 km/h SW 2,0 C 1,5 C 5,9 km/h
06.01.2014 6,1 C 81 % 1011,1 hPa 0,0 l/m 0,6 km/h O-SO 3,0 C 6,1 C 0,4 km/h
07.01.2014 12,0 C 68 % 1015,4 hPa 0,0 l/m 7,8 km/h S-SW 6,1 C 10,0 C 4,3 km/h
08.01.2014 11,3 C 77 % 1018,7 hPa 0,0 l/m 3,2 km/h O-SO 7,3 C 10,4 C 1,8 km/h
09.01.2014 10,8 C 69 % 1013,0 hPa 10,4 l/m 11,3 km/h SW 4,9 C 7,8 C 6,3 km/h
10.01.2014 7,2 C 79 % 1017,2 hPa 4,1 l/m 1,7 km/h O-SO 3,7 C 7,0 C 0,9 km/h
11.01.2014 5,1 C 85 % 1017,2 hPa 1,0 l/m 0,9 km/h O-SO 2,7 C 5,0 C 0,5 km/h
12.01.2014 2,9 C 84 % 1020,3 hPa 0,0 l/m 0,0 km/h O-SO 0,5 C 2,9 C 0,0 km/h
13.01.2014 3,7 C 80 % 1012,5 hPa 3,1 l/m 0,6 km/h O-NO 0,6 C 3,6 C 0,4 km/h
14.01.2014 4,9 C 80 % 1006,0 hPa 4,1 l/m 1,1 km/h O-SO 1,8 C 4,6 C 0,6 km/h
15.01.2014 5,1 C 76 % 1001,9 hPa 0,5 l/m 3,5 km/h O-NO 1,1 C 4,2 C 2,0 km/h
16.01.2014 6,0 C 86 % 979,8 hPa 6,2 l/m 2,6 km/h O-SO 3,8 C 5,2 C 1,7 km/h
17.01.2014 5,4 C 83 % 977,8 hPa 0,0 l/m 0,2 km/h O-SO 2,7 C 5,4 C 0,2 km/h
18.01.2014 1,8 C 83 % 973,1 hPa 0,0 l/m 0,0 km/h NW -0,7 C 1,8 C 0,0 km/h
19.01.2014 2,3 C 83 % 970,3 hPa 0,0 l/m 0,1 km/h W -0,2 C 2,3 C 0,0 km/h
20.01.2014 3,6 C 83 % 974,4 hPa 0,8 l/m 0,0 km/h NW 0,9 C 3,6 C 0,0 km/h
21.01.2014 4,4 C 85 % 982,8 hPa 1,6 l/m 0,6 km/h W-SW 2,0 C 4,4 C 0,5 km/h
22.01.2014 4,3 C 83 % 987,7 hPa 0,0 l/m 0,0 km/h N 1,7 C 4,3 C 0,0 km/h
23.01.2014 3,4 C 87 % 986,0 hPa 2,3 l/m 9,9 km/h NO 1,5 C -0,3 C 6,1 km/h
24.01.2014 1,9 C 87 % 986,5 hPa 6,2 l/m 4,3 km/h O-SO -0,0 C 0,5 C 3,3 km/h
25.01.2014 1,2 C 81 % 988,8 hPa 0,0 l/m 1,3 km/h O-SO -1,7 C 0,8 C 1,3 km/h
26.01.2014 5,0 C 75 % 981,7 hPa 0,8 l/m 11,1 km/h SW 1,0 C 1,2 C 7,2 km/h
27.01.2014 5,1 C 81 % 972,2 hPa 5,4 l/m 5,9 km/h W-SW 2,1 C 3,8 C 4,3 km/h
28.01.2014 4,8 C 70 % 971,0 hPa 0,0 l/m 5,5 km/h SO -0,6 C 3,0 C 3,3 km/h
29.01.2014 0,2 C 80 % 972,1 hPa 0,0 l/m 0,8 km/h N-NO -2,9 C 0,1 C 0,4 km/h
30.01.2014 1,1 C 85 % 980,0 hPa 0,0 l/m 0,1 km/h W-SW -1,1 C 1,1 C 0,1 km/h
31.01.2014 2,4 C 80 % 987,3 hPa 0,0 l/m 0,2 km/h W -0,8 C 2,4 C 0,1 km/h
Min-Datum 29.01.14 28.01.14 27.01.14 18 Tage 01.01.14 - 29.01.14 28.01.14 01.01.14
Min-Zeit 08:19 15:19 00:19 - 00:19 - 08:19 20:19 00:19
Minimum -4,6 C 42 % 967,9 hPa - 0,0 km/h - -6,4 C -10,6 C 0,0 km/h
Max-Datum 08.01.14 14.01.14 12.01.14 09.01.14 23.01.14 - 08.01.14 08.01.14 23.01.14
Max-Zeit 12:19 20:19 09:19 12:19 15:19 - 12:19 12:19 15:19
Maximum 19,1 C 88 % 1022,8 hPa 10,4 l/m 38,9 km/h
NO
- 12,1 C 19,1 C 21,6 km/h
NO
Durchschnitt 5,0 C 81 % 995,0 hPa #65,3 l/m 3,2 km/h O-SO 1,9 C 4,1 C 1,9 km/h

Durchschnitt Minimum Temp.1,2 C
Durchschnitt Maximum Temp.10,1 C
www.sexauwetter.de